Terminal Aerodrome Forecast
Issued by NWS

Home | Current Version | Previous Version | Text Only | Print | Product List | Glossary On
Versions: 1 2 3 4 5 6 7 8 9 10 11 12 13
861
FTPA31 PHFO 042107 AAA
TAFHMK
TAF AMD
PHMK 042107Z 0421/0518 05014G23KT P6SM VCSH SCT025 BKN035
      TEMPO 0421/0423 -SHRA BKN025
     FM050700 05008KT P6SM SCT025 SCT050=

USA.gov is the U.S. government's official web portal to all federal, state and local government web resources and services.